sensor_id;sensor_type;location;lat;lon;timestamp;pressure;altitude;pressure_sealevel;temperature;humidity
73821;BME280;62150;43.582;1.456;2024-02-04T04:38:42;101679.84;;;9.55;100.00
73821;BME280;62150;43.582;1.456;2024-02-04T04:41:10;101651.97;;;9.99;100.00
73821;BME280;62150;43.582;1.456;2024-02-04T04:43:37;101644.13;;;10.10;100.00
73821;BME280;62150;43.582;1.456;2024-02-04T04:46:05;101647.47;;;10.17;100.00
73821;BME280;62150;43.582;1.456;2024-02-04T04:48:32;101644.00;;;10.21;100.00
73821;BME280;62150;43.582;1.456;2024-02-04T04:51:00;101639.72;;;10.23;100.00
73821;BME280;62150;43.582;1.456;2024-02-04T04:53:27;101640.44;;;10.32;100.00
73821;BME280;62150;43.582;1.456;2024-02-04T04:55:57;101632.69;;;10.35;100.00
73821;BME280;62150;43.582;1.456;2024-02-04T04:58:24;101640.44;;;10.32;100.00
73821;BME280;62150;43.582;1.456;2024-02-04T05:00:52;101648.25;;;10.25;100.00
73821;BME280;62150;43.582;1.456;2024-02-04T05:03:20;101641.31;;;10.31;100.00
73821;BME280;62150;43.582;1.456;2024-02-04T05:05:47;101646.50;;;10.27;100.00
73821;BME280;62150;43.582;1.456;2024-02-04T05:08:15;101652.44;;;10.32;100.00
73821;BME280;62150;43.582;1.456;2024-02-04T05:10:42;101654.19;;;10.30;100.00
73821;BME280;62150;43.582;1.456;2024-02-04T05:13:11;101656.63;;;10.39;100.00
73821;BME280;62150;43.582;1.456;2024-02-04T05:15:39;101654.94;;;10.36;100.00
73821;BME280;62150;43.582;1.456;2024-02-04T05:18:06;101653.31;;;10.31;100.00
73821;BME280;62150;43.582;1.456;2024-02-04T05:20:34;101661.09;;;10.25;100.00
73821;BME280;62150;43.582;1.456;2024-02-04T05:23:02;101662.72;;;10.30;100.00
73821;BME280;62150;43.582;1.456;2024-02-04T05:25:29;101656.94;;;10.12;100.00
73821;BME280;62150;43.582;1.456;2024-02-04T05:27:57;101661.25;;;10.09;100.00
73821;BME280;62150;43.582;1.456;2024-02-04T05:30:26;101655.25;;;10.11;100.00
73821;BME280;62150;43.582;1.456;2024-02-04T05:32:53;101646.47;;;10.30;100.00
73821;BME280;62150;43.582;1.456;2024-02-04T05:35:21;101648.81;;;10.44;100.00
73821;BME280;62150;43.582;1.456;2024-02-04T05:37:48;101651.38;;;10.45;100.00
73821;BME280;62150;43.582;1.456;2024-02-04T05:40:16;101646.22;;;10.47;100.00
73821;BME280;62150;43.582;1.456;2024-02-04T05:42:45;101646.22;;;10.45;100.00
73821;BME280;62150;43.582;1.456;2024-02-04T05:45:13;101646.19;;;10.48;100.00
73821;BME280;62150;43.582;1.456;2024-02-04T05:47:41;101655.59;;;10.49;100.00
73821;BME280;62150;43.582;1.456;2024-02-04T05:50:09;101645.28;;;10.51;100.00
73821;BME280;62150;43.582;1.456;2024-02-04T05:52:37;101647.84;;;10.52;100.00
73821;BME280;62150;43.582;1.456;2024-02-04T05:55:05;101667.56;;;10.50;100.00
73821;BME280;62150;43.582;1.456;2024-02-04T05:57:32;101674.38;;;10.54;100.00
73821;BME280;62150;43.582;1.456;2024-02-04T06:00:00;101675.19;;;10.56;100.00
73821;BME280;62150;43.582;1.456;2024-02-04T06:02:27;101681.16;;;10.58;100.00
73821;BME280;62150;43.582;1.456;2024-02-04T06:04:56;101683.66;;;10.64;100.00
73821;BME280;62150;43.582;1.456;2024-02-04T06:07:24;101691.47;;;10.57;100.00
73821;BME280;62150;43.582;1.456;2024-02-04T06:09:51;101699.19;;;10.55;100.00
73821;BME280;62150;43.582;1.456;2024-02-04T06:12:18;101693.94;;;10.64;100.00
73821;BME280;62150;43.582;1.456;2024-02-04T06:14:46;101688.91;;;10.55;100.00
73821;BME280;62150;43.582;1.456;2024-02-04T06:17:14;101700.16;;;10.48;100.00
73821;BME280;62150;43.582;1.456;2024-02-04T06:19:41;101712.09;;;10.52;100.00
73821;BME280;62150;43.582;1.456;2024-02-04T06:22:10;101709.56;;;10.49;100.00
73821;BME280;62150;43.582;1.456;2024-02-04T06:24:38;101718.06;;;10.54;100.00
73821;BME280;62150;43.582;1.456;2024-02-04T06:27:07;101711.25;;;10.50;100.00
73821;BME280;62150;43.582;1.456;2024-02-04T06:29:35;101708.69;;;10.50;100.00
73821;BME280;62150;43.582;1.456;2024-02-04T06:32:03;101693.28;;;10.49;100.00
73821;BME280;62150;43.582;1.456;2024-02-04T06:34:31;101704.41;;;10.49;100.00
73821;BME280;62150;43.582;1.456;2024-02-04T06:36:58;101699.31;;;10.46;100.00
73821;BME280;62150;43.582;1.456;2024-02-04T06:39:27;101713.09;;;10.40;100.00
73821;BME280;62150;43.582;1.456;2024-02-04T06:41:55;101707.81;;;10.51;100.00
73821;BME280;62150;43.582;1.456;2024-02-04T06:44:22;101710.44;;;10.48;100.00
73821;BME280;62150;43.582;1.456;2024-02-04T06:46:50;101700.13;;;10.50;100.00
73821;BME280;62150;43.582;1.456;2024-02-04T06:49:17;101700.94;;;10.53;100.00
73821;BME280;62150;43.582;1.456;2024-02-04T06:51:45;101706.94;;;10.52;100.00
73821;BME280;62150;43.582;1.456;2024-02-04T06:56:54;101707.78;;;10.53;100.00
73821;BME280;62150;43.582;1.456;2024-02-04T06:59:22;101700.97;;;10.50;100.00
73821;BME280;62150;43.582;1.456;2024-02-04T07:01:50;101708.66;;;10.52;100.00
73821;BME280;62150;43.582;1.456;2024-02-04T07:04:19;101708.81;;;10.41;100.00
73821;BME280;62150;43.582;1.456;2024-02-04T07:06:48;101709.56;;;10.48;100.00
73821;BME280;62150;43.582;1.456;2024-02-04T07:09:18;101717.53;;;10.29;100.00
73821;BME280;62150;43.582;1.456;2024-02-04T07:11:45;101721.72;;;10.38;100.00
73821;BME280;62150;43.582;1.456;2024-02-04T07:14:14;101713.88;;;10.47;100.00
73821;BME280;62150;43.582;1.456;2024-02-04T07:16:42;101720.66;;;10.51;100.00
73821;BME280;62150;43.582;1.456;2024-02-04T07:19:09;101720.00;;;10.38;100.00
73821;BME280;62150;43.582;1.456;2024-02-04T07:21:37;101730.28;;;10.38;100.00
73821;BME280;62150;43.582;1.456;2024-02-04T07:24:05;101726.72;;;10.46;100.00
73821;BME280;62150;43.582;1.456;2024-02-04T07:26:32;101720.88;;;10.37;100.00
73821;BME280;62150;43.582;1.456;2024-02-04T07:29:00;101718.13;;;10.50;100.00
73821;BME280;62150;43.582;1.456;2024-02-04T07:31:29;101719.78;;;10.52;100.00
73821;BME280;62150;43.582;1.456;2024-02-04T07:33:56;101724.06;;;10.53;100.00
73821;BME280;62150;43.582;1.456;2024-02-04T07:36:24;101732.66;;;10.52;100.00
73821;BME280;62150;43.582;1.456;2024-02-04T07:38:51;101728.38;;;10.51;100.00
73821;BME280;62150;43.582;1.456;2024-02-04T07:41:19;101725.38;;;10.16;100.00
73821;BME280;62150;43.582;1.456;2024-02-04T07:43:49;101737.44;;;10.07;100.00
73821;BME280;62150;43.582;1.456;2024-02-04T07:46:17;101749.25;;;10.27;100.00
73821;BME280;62150;43.582;1.456;2024-02-04T07:48:45;101741.47;;;10.33;100.00
73821;BME280;62150;43.582;1.456;2024-02-04T07:51:13;101743.06;;;10.41;100.00
73821;BME280;62150;43.582;1.456;2024-02-04T07:53:40;101744.63;;;10.53;100.00
73821;BME280;62150;43.582;1.456;2024-02-04T07:56:08;101752.31;;;10.55;100.00
73821;BME280;62150;43.582;1.456;2024-02-04T07:58:37;101747.16;;;10.56;100.00
73821;BME280;62150;43.582;1.456;2024-02-04T08:01:04;101747.22;;;10.50;100.00
73821;BME280;62150;43.582;1.456;2024-02-04T08:03:32;101746.31;;;10.56;100.00
73821;BME280;62150;43.582;1.456;2024-02-04T08:06:02;101749.91;;;10.41;100.00
73821;BME280;62150;43.582;1.456;2024-02-04T08:08:30;101748.06;;;10.52;100.00
73821;BME280;62150;43.582;1.456;2024-02-04T08:10:58;101754.03;;;10.54;100.00
73821;BME280;62150;43.582;1.456;2024-02-04T08:13:25;101755.56;;;10.69;100.00
73821;BME280;62150;43.582;1.456;2024-02-04T08:15:53;101767.53;;;10.71;100.00
73821;BME280;62150;43.582;1.456;2024-02-04T08:18:20;101764.97;;;10.71;100.00
73821;BME280;62150;43.582;1.456;2024-02-04T08:20:48;101761.34;;;10.82;100.00
73821;BME280;62150;43.582;1.456;2024-02-04T08:23:17;101759.66;;;10.81;100.00
73821;BME280;62150;43.582;1.456;2024-02-04T08:25:44;101767.41;;;10.79;100.00
73821;BME280;62150;43.582;1.456;2024-02-04T08:28:12;101763.13;;;10.77;100.00
73821;BME280;62150;43.582;1.456;2024-02-04T08:30:40;101766.56;;;10.77;100.00
73821;BME280;62150;43.582;1.456;2024-02-04T08:33:07;101770.94;;;10.73;100.00
73821;BME280;62150;43.582;1.456;2024-02-04T08:35:35;101769.22;;;10.72;100.00
73821;BME280;62150;43.582;1.456;2024-02-04T08:38:03;101770.03;;;10.74;100.00
73821;BME280;62150;43.582;1.456;2024-02-04T08:40:32;101774.28;;;10.75;100.00
73821;BME280;62150;43.582;1.456;2024-02-04T08:42:59;101772.50;;;10.81;100.00
73821;BME280;62150;43.582;1.456;2024-02-04T08:45:27;101775.97;;;10.80;100.00
73821;BME280;62150;43.582;1.456;2024-02-04T08:47:54;101780.25;;;10.79;100.00
73821;BME280;62150;43.582;1.456;2024-02-04T08:50:22;101781.94;;;10.80;100.00
73821;BME280;62150;43.582;1.456;2024-02-04T08:52:49;101775.97;;;10.80;100.00
73821;BME280;62150;43.582;1.456;2024-02-04T08:55:17;101779.34;;;10.83;100.00
73821;BME280;62150;43.582;1.456;2024-02-04T08:57:46;101779.44;;;10.75;100.00
73821;BME280;62150;43.582;1.456;2024-02-04T09:00:15;101769.97;;;10.78;100.00
73821;BME280;62150;43.582;1.456;2024-02-04T09:02:43;101773.41;;;10.78;100.00
73821;BME280;62150;43.582;1.456;2024-02-04T09:05:12;101786.16;;;10.86;100.00
73821;BME280;62150;43.582;1.456;2024-02-04T09:07:41;101782.81;;;10.81;100.00
73821;BME280;62150;43.582;1.456;2024-02-04T09:10:09;101771.84;;;10.69;100.00
73821;BME280;62150;43.582;1.456;2024-02-04T09:12:36;101783.69;;;10.78;100.00
73821;BME280;62150;43.582;1.456;2024-02-04T09:15:06;101790.56;;;10.76;100.00
73821;BME280;62150;43.582;1.456;2024-02-04T09:17:34;101786.97;;;10.89;100.00
73821;BME280;62150;43.582;1.456;2024-02-04T09:20:02;101781.81;;;10.91;100.00
73821;BME280;62150;43.582;1.456;2024-02-04T09:22:30;101778.38;;;10.92;100.00
73821;BME280;62150;43.582;1.456;2024-02-04T09:24:57;101782.59;;;10.96;100.00
73821;BME280;62150;43.582;1.456;2024-02-04T09:27:25;101777.41;;;10.99;100.00
73821;BME280;62150;43.582;1.456;2024-02-04T09:29:52;101777.56;;;10.87;100.00
73821;BME280;62150;43.582;1.456;2024-02-04T09:32:22;101774.88;;;10.97;100.00
73821;BME280;62150;43.582;1.456;2024-02-04T09:34:50;101768.78;;;11.03;100.00
73821;BME280;62150;43.582;1.456;2024-02-04T09:37:18;101767.97;;;11.01;100.00
73821;BME280;62150;43.582;1.456;2024-02-04T09:39:45;101771.28;;;11.07;100.00
73821;BME280;62150;43.582;1.456;2024-02-04T09:42:20;101766.03;;;11.14;100.00
73821;BME280;62150;43.582;1.456;2024-02-04T09:44:49;101775.47;;;11.13;100.00
73821;BME280;62150;43.582;1.456;2024-02-04T09:47:17;101767.97;;;10.99;100.00
73821;BME280;62150;43.582;1.456;2024-02-04T09:49:46;101773.81;;;11.09;100.00
73821;BME280;62150;43.582;1.456;2024-02-04T09:52:16;101778.94;;;11.09;100.00
73821;BME280;62150;43.582;1.456;2024-02-04T09:54:49;101767.88;;;11.05;100.00
73821;BME280;62150;43.582;1.456;2024-02-04T09:57:17;101768.78;;;11.03;100.00
73821;BME280;62150;43.582;1.456;2024-02-04T09:59:44;101774.72;;;11.08;100.00
73821;BME280;62150;43.582;1.456;2024-02-04T10:02:13;101772.22;;;11.03;100.00
73821;BME280;62150;43.582;1.456;2024-02-04T10:04:42;101774.72;;;11.06;100.00
73821;BME280;62150;43.582;1.456;2024-02-04T10:07:11;101777.31;;;11.05;100.00
73821;BME280;62150;43.582;1.456;2024-02-04T10:09:40;101781.50;;;11.11;100.00
73821;BME280;62150;43.582;1.456;2024-02-04T10:12:08;101782.31;;;11.14;100.00
73821;BME280;62150;43.582;1.456;2024-02-04T10:14:36;101782.94;;;11.30;100.00
73821;BME280;62150;43.582;1.456;2024-02-04T10:17:09;101779.59;;;11.23;100.00
73821;BME280;62150;43.582;1.456;2024-02-04T10:19:38;101775.34;;;11.21;100.00
73821;BME280;62150;43.582;1.456;2024-02-04T10:22:06;101770.13;;;11.25;100.00
73821;BME280;62150;43.582;1.456;2024-02-04T10:24:35;101772.03;;;11.14;100.00
73821;BME280;62150;43.582;1.456;2024-02-04T10:27:02;101768.53;;;11.18;100.00
73821;BME280;62150;43.582;1.456;2024-02-04T10:29:31;101773.53;;;11.29;100.00
73821;BME280;62150;43.582;1.456;2024-02-04T10:31:58;101792.47;;;11.23;100.00
73821;BME280;62150;43.582;1.456;2024-02-04T10:34:27;101776.03;;;11.32;100.00
73821;BME280;62150;43.582;1.456;2024-02-04T10:36:56;101771.75;;;11.32;100.00
73821;BME280;62150;43.582;1.456;2024-02-04T10:39:24;101764.13;;;11.26;100.00
73821;BME280;62150;43.582;1.456;2024-02-04T10:41:53;101764.03;;;11.32;100.00
73821;BME280;62150;43.582;1.456;2024-02-04T10:44:23;101757.97;;;11.36;100.00
73821;BME280;62150;43.582;1.456;2024-02-04T10:46:52;101750.75;;;11.04;100.00
73821;BME280;62150;43.582;1.456;2024-02-04T10:49:21;101752.38;;;11.10;100.00
73821;BME280;62150;43.582;1.456;2024-02-04T10:51:51;101745.75;;;10.95;100.00
73821;BME280;62150;43.582;1.456;2024-02-04T10:54:23;101759.03;;;11.22;100.00
73821;BME280;62150;43.582;1.456;2024-02-04T10:56:58;101761.63;;;11.22;100.00
73821;BME280;62150;43.582;1.456;2024-02-04T10:59:30;101759.75;;;11.31;100.00
73821;BME280;62150;43.582;1.456;2024-02-04T11:01:58;101761.41;;;11.35;100.00
73821;BME280;62150;43.582;1.456;2024-02-04T11:04:27;101766.88;;;11.14;100.00
73821;BME280;62150;43.582;1.456;2024-02-04T11:06:56;101764.81;;;11.37;100.00
73821;BME280;62150;43.582;1.456;2024-02-04T11:09:25;101771.66;;;11.38;100.00
73821;BME280;62150;43.582;1.456;2024-02-04T11:11:56;101779.25;;;11.45;100.00
73821;BME280;62150;43.582;1.456;2024-02-04T11:14:26;101763.53;;;11.61;100.00
73821;BME280;62150;43.582;1.456;2024-02-04T11:17:26;101761.06;;;11.55;100.00
73821;BME280;62150;43.582;1.456;2024-02-04T11:20:08;101766.28;;;11.51;100.00
73821;BME280;62150;43.582;1.456;2024-02-04T11:22:56;101764.59;;;11.50;100.00
73821;BME280;62150;43.582;1.456;2024-02-04T11:25:46;101759.47;;;11.47;100.00
73821;BME280;62150;43.582;1.456;2024-02-04T11:28:16;101760.38;;;11.44;100.00
73821;BME280;62150;43.582;1.456;2024-02-04T11:30:46;101754.25;;;11.53;100.00
73821;BME280;62150;43.582;1.456;2024-02-04T11:33:18;101749.59;;;11.73;100.00
73821;BME280;62150;43.582;1.456;2024-02-04T11:35:46;101736.03;;;11.63;100.00
73821;BME280;62150;43.582;1.456;2024-02-04T11:38:18;101734.44;;;11.56;100.00
73821;BME280;62150;43.582;1.456;2024-02-04T11:40:46;101726.53;;;11.67;100.00
73821;BME280;62150;43.582;1.456;2024-02-04T11:43:16;101728.97;;;11.76;100.00
73821;BME280;62150;43.582;1.456;2024-02-04T11:45:44;101722.97;;;11.75;100.00
73821;BME280;62150;43.582;1.456;2024-02-04T11:48:12;101722.28;;;11.64;100.00
73821;BME280;62150;43.582;1.456;2024-02-04T11:50:40;101718.78;;;11.68;100.00
73821;BME280;62150;43.582;1.456;2024-02-04T11:53:10;101711.81;;;11.75;100.00
73821;BME280;62150;43.582;1.456;2024-02-04T11:55:40;101713.50;;;11.76;100.00
73821;BME280;62150;43.582;1.456;2024-02-04T11:58:08;101698.81;;;11.81;100.00
73821;BME280;62150;43.582;1.456;2024-02-04T12:00:37;101687.56;;;11.87;100.00
73821;BME280;62150;43.582;1.456;2024-02-04T12:03:09;101688.34;;;11.90;100.00
73821;BME280;62150;43.582;1.456;2024-02-04T12:05:37;101685.63;;;11.98;100.00
73821;BME280;62150;43.582;1.456;2024-02-04T12:08:06;101686.31;;;12.07;100.00
73821;BME280;62150;43.582;1.456;2024-02-04T12:10:35;101682.09;;;12.03;100.00
73821;BME280;62150;43.582;1.456;2024-02-04T12:13:04;101684.59;;;12.06;100.00
73821;BME280;62150;43.582;1.456;2024-02-04T12:15:32;101681.31;;;11.98;100.00
73821;BME280;62150;43.582;1.456;2024-02-04T12:18:08;101667.84;;;12.27;100.00
73821;BME280;62150;43.582;1.456;2024-02-04T12:20:36;101666.84;;;11.93;100.00
73821;BME280;62150;43.582;1.456;2024-02-04T12:23:05;101661.03;;;12.23;100.00
73821;BME280;62150;43.582;1.456;2024-02-04T12:25:33;101652.16;;;11.98;100.00
73821;BME280;62150;43.582;1.456;2024-02-04T12:28:02;101646.31;;;12.30;100.00
73821;BME280;62150;43.582;1.456;2024-02-04T12:30:31;101641.03;;;12.36;100.00
73821;BME280;62150;43.582;1.456;2024-02-04T12:33:00;101642.50;;;12.46;100.00
73821;BME280;62150;43.582;1.456;2024-02-04T12:35:32;101633.25;;;12.37;100.00
73821;BME280;62150;43.582;1.456;2024-02-04T12:38:00;101633.31;;;12.34;100.00
73821;BME280;62150;43.582;1.456;2024-02-04T12:40:30;101630.81;;;12.31;100.00
73821;BME280;62150;43.582;1.456;2024-02-04T12:42:59;101626.31;;;12.41;100.00
73821;BME280;62150;43.582;1.456;2024-02-04T12:45:28;101631.19;;;12.52;100.00
73821;BME280;62150;43.582;1.456;2024-02-04T12:47:56;101622.94;;;12.74;100.00
73821;BME280;62150;43.582;1.456;2024-02-04T12:50:25;101629.78;;;12.75;100.00
73821;BME280;62150;43.582;1.456;2024-02-04T12:53:04;101623.50;;;12.86;100.00
73821;BME280;62150;43.582;1.456;2024-02-04T12:55:32;101624.16;;;12.21;100.00
73821;BME280;62150;43.582;1.456;2024-02-04T12:58:04;101618.03;;;12.27;100.00
73821;BME280;62150;43.582;1.456;2024-02-04T13:00:32;101624.59;;;12.40;100.00
73821;BME280;62150;43.582;1.456;2024-02-04T13:02:59;101621.78;;;12.49;100.00
73821;BME280;62150;43.582;1.456;2024-02-04T13:05:27;101622.03;;;12.75;100.00
73821;BME280;62150;43.582;1.456;2024-02-04T13:07:58;101614.44;;;12.69;100.00
73821;BME280;62150;43.582;1.456;2024-02-04T13:10:30;101610.44;;;12.92;100.00
73821;BME280;62150;43.582;1.456;2024-02-04T13:13:02;101608.91;;;12.85;100.00
73821;BME280;62150;43.582;1.456;2024-02-04T13:15:32;101613.72;;;12.64;100.00
73821;BME280;62150;43.582;1.456;2024-02-04T13:18:00;101609.59;;;12.91;100.00
73821;BME280;62150;43.582;1.456;2024-02-04T13:20:27;101604.94;;;12.71;100.00
73821;BME280;62150;43.582;1.456;2024-02-04T13:22:55;101599.66;;;12.78;100.00
73821;BME280;62150;43.582;1.456;2024-02-04T13:25:23;101598.75;;;12.79;100.00
73821;BME280;62150;43.582;1.456;2024-02-04T13:27:53;101602.66;;;12.59;100.00
73821;BME280;62150;43.582;1.456;2024-02-04T13:30:20;101601.81;;;12.93;100.00
73821;BME280;62150;43.582;1.456;2024-02-04T13:32:48;101600.06;;;12.95;100.00
73821;BME280;62150;43.582;1.456;2024-02-04T13:35:16;101594.22;;;12.87;100.00
73821;BME280;62150;43.582;1.456;2024-02-04T13:37:45;101585.56;;;13.23;100.00
73821;BME280;62150;43.582;1.456;2024-02-04T13:40:14;101584.47;;;13.32;100.00
73821;BME280;62150;43.582;1.456;2024-02-04T13:42:43;101581.50;;;13.15;100.00
73821;BME280;62150;43.582;1.456;2024-02-04T13:45:12;101582.56;;;13.06;100.00
73821;BME280;62150;43.582;1.456;2024-02-04T13:47:40;101582.16;;;12.89;100.00
73821;BME280;62150;43.582;1.456;2024-02-04T13:50:09;101580.16;;;13.00;100.00
73821;BME280;62150;43.582;1.456;2024-02-04T13:52:37;101577.25;;;13.12;100.00
73821;BME280;62150;43.582;1.456;2024-02-04T13:55:05;101577.09;;;13.18;100.00
73821;BME280;62150;43.582;1.456;2024-02-04T13:57:33;101568.25;;;12.94;100.00
73821;BME280;62150;43.582;1.456;2024-02-04T14:00:01;101579.84;;;13.12;100.00
73821;BME280;62150;43.582;1.456;2024-02-04T14:02:32;101578.47;;;13.31;100.00
73821;BME280;62150;43.582;1.456;2024-02-04T14:04:59;101572.63;;;13.25;100.00
73821;BME280;62150;43.582;1.456;2024-02-04T14:07:27;101566.97;;;13.43;100.00
73821;BME280;62150;43.582;1.456;2024-02-04T14:09:55;101564.88;;;13.25;100.00
73821;BME280;62150;43.582;1.456;2024-02-04T14:12:22;101561.94;;;13.06;100.00
73821;BME280;62150;43.582;1.456;2024-02-04T14:14:50;101565.47;;;13.34;100.00
73821;BME280;62150;43.582;1.456;2024-02-04T14:17:19;101568.16;;;13.31;100.00
73821;BME280;62150;43.582;1.456;2024-02-04T14:19:48;101565.50;;;13.00;100.00
73821;BME280;62150;43.582;1.456;2024-02-04T14:22:18;101570.75;;;13.30;100.00
73821;BME280;62150;43.582;1.456;2024-02-04T14:24:46;101565.78;;;13.24;100.00
73821;BME280;62150;43.582;1.456;2024-02-04T14:27:14;101555.19;;;13.33;100.00
73821;BME280;62150;43.582;1.456;2024-02-04T14:29:41;101564.50;;;13.38;100.00
73821;BME280;62150;43.582;1.456;2024-02-04T14:32:09;101557.41;;;13.47;100.00
73821;BME280;62150;43.582;1.456;2024-02-04T14:34:37;101559.84;;;13.51;100.00
73821;BME280;62150;43.582;1.456;2024-02-04T14:37:06;101555.72;;;13.13;100.00
73821;BME280;62150;43.582;1.456;2024-02-04T14:39:34;101544.22;;;13.56;100.00
73821;BME280;62150;43.582;1.456;2024-02-04T14:42:01;101547.63;;;13.56;100.00
73821;BME280;62150;43.582;1.456;2024-02-04T14:44:29;101541.53;;;13.59;100.00
73821;BME280;62150;43.582;1.456;2024-02-04T14:46:58;101549.28;;;13.29;100.00
73821;BME280;62150;43.582;1.456;2024-02-04T14:49:26;101546.31;;;13.43;100.00
73821;BME280;62150;43.582;1.456;2024-02-04T14:51:53;101552.75;;;13.28;100.00
73821;BME280;62150;43.582;1.456;2024-02-04T14:54:22;101550.81;;;13.36;100.00
73821;BME280;62150;43.582;1.456;2024-02-04T14:56:50;101545.00;;;13.28;100.00
73821;BME280;62150;43.582;1.456;2024-02-04T14:59:17;101543.22;;;13.60;100.00
73821;BME280;62150;43.582;1.456;2024-02-04T15:01:45;101541.28;;;13.68;100.00
73821;BME280;62150;43.582;1.456;2024-02-04T15:04:13;101542.50;;;13.55;100.00
73821;BME280;62150;43.582;1.456;2024-02-04T15:06:41;101550.81;;;13.36;100.00
73821;BME280;62150;43.582;1.456;2024-02-04T15:09:10;101553.94;;;13.48;100.00
73821;BME280;62150;43.582;1.456;2024-02-04T15:11:39;101541.06;;;13.46;100.00
73821;BME280;62150;43.582;1.456;2024-02-04T15:14:08;101544.22;;;13.56;100.00
73821;BME280;62150;43.582;1.456;2024-02-04T15:16:36;101540.81;;;13.54;100.00
73821;BME280;62150;43.582;1.456;2024-02-04T15:19:05;101541.31;;;13.37;100.00
73821;BME280;62150;43.582;1.456;2024-02-04T15:21:33;101544.97;;;13.30;100.00
73821;BME280;62150;43.582;1.456;2024-02-04T15:24:02;101550.72;;;13.39;100.00
73821;BME280;62150;43.582;1.456;2024-02-04T15:26:32;101546.38;;;13.09;100.00
73821;BME280;62150;43.582;1.456;2024-02-04T15:29:03;101545.97;;;13.24;100.00
73821;BME280;62150;43.582;1.456;2024-02-04T15:31:31;101555.88;;;13.39;100.00
73821;BME280;62150;43.582;1.456;2024-02-04T15:34:00;101548.00;;;12.81;100.00
73821;BME280;62150;43.582;1.456;2024-02-04T15:36:28;101549.59;;;13.17;100.00
73821;BME280;62150;43.582;1.456;2024-02-04T15:38:58;101543.72;;;12.80;100.00
73821;BME280;62150;43.582;1.456;2024-02-04T15:41:25;101545.88;;;12.95;100.00
73821;BME280;62150;43.582;1.456;2024-02-04T15:43:54;101547.31;;;13.37;100.00
73821;BME280;62150;43.582;1.456;2024-02-04T15:46:24;101551.94;;;13.26;100.00
73821;BME280;62150;43.582;1.456;2024-02-04T15:48:53;101553.59;;;13.29;100.00
73821;BME280;62150;43.582;1.456;2024-02-04T15:51:21;101552.66;;;12.99;100.00
73821;BME280;62150;43.582;1.456;2024-02-04T15:53:49;101550.81;;;13.04;100.00
73821;BME280;62150;43.582;1.456;2024-02-04T15:56:19;101555.44;;;13.24;100.00
73821;BME280;62150;43.582;1.456;2024-02-04T15:58:47;101549.66;;;13.47;100.00
73821;BME280;62150;43.582;1.456;2024-02-04T16:01:23;101546.69;;;13.59;100.00
73821;BME280;62150;43.582;1.456;2024-02-04T16:03:53;101545.16;;;12.90;100.00
73821;BME280;62150;43.582;1.456;2024-02-04T16:06:21;101549.56;;;12.85;100.00
73821;BME280;62150;43.582;1.456;2024-02-04T16:08:49;101550.50;;;13.16;100.00
73821;BME280;62150;43.582;1.456;2024-02-04T16:11:19;101550.03;;;13.00;100.00
73821;BME280;62150;43.582;1.456;2024-02-04T16:13:46;101553.31;;;13.07;100.00
73821;BME280;62150;43.582;1.456;2024-02-04T16:16:20;101560.47;;;12.96;100.00
73821;BME280;62150;43.582;1.456;2024-02-04T16:18:52;101557.78;;;13.00;100.00
73821;BME280;62150;43.582;1.456;2024-02-04T16:21:19;101559.88;;;13.19;100.00
73821;BME280;62150;43.582;1.456;2024-02-04T16:23:47;101557.91;;;13.28;100.00
73821;BME280;62150;43.582;1.456;2024-02-04T16:26:14;101558.66;;;13.32;100.00
73821;BME280;62150;43.582;1.456;2024-02-04T16:28:43;101559.34;;;13.38;100.00
73821;BME280;62150;43.582;1.456;2024-02-04T16:31:10;101557.41;;;13.47;100.00
73821;BME280;62150;43.582;1.456;2024-02-04T16:33:39;101560.72;;;13.19;100.00
73821;BME280;62150;43.582;1.456;2024-02-04T16:36:09;101567.94;;;13.06;100.00
73821;BME280;62150;43.582;1.456;2024-02-04T16:38:37;101562.50;;;12.83;100.00
73821;BME280;62150;43.582;1.456;2024-02-04T16:41:04;101565.41;;;13.05;100.00
73821;BME280;62150;43.582;1.456;2024-02-04T16:43:33;101560.84;;;13.16;100.00
73821;BME280;62150;43.582;1.456;2024-02-04T16:46:01;101567.63;;;13.19;100.00
73821;BME280;62150;43.582;1.456;2024-02-04T16:48:29;101567.00;;;12.77;100.00
73821;BME280;62150;43.582;1.456;2024-02-04T16:50:56;101563.09;;;12.60;100.00
73821;BME280;62150;43.582;1.456;2024-02-04T16:53:25;101570.66;;;12.68;100.00
73821;BME280;62150;43.582;1.456;2024-02-04T16:55:53;101573.06;;;13.08;100.00
73821;BME280;62150;43.582;1.456;2024-02-04T16:58:20;101570.34;;;13.13;100.00
73821;BME280;62150;43.582;1.456;2024-02-04T17:00:48;101570.94;;;12.90;100.00
73821;BME280;62150;43.582;1.456;2024-02-04T17:03:16;101580.13;;;11.93;100.00
73821;BME280;62150;43.582;1.456;2024-02-04T17:05:44;101586.63;;;12.11;100.00
73821;BME280;62150;43.582;1.456;2024-02-04T17:08:12;101583.81;;;12.91;100.00
73821;BME280;62150;43.582;1.456;2024-02-04T17:10:42;101580.97;;;12.68;100.00
73821;BME280;62150;43.582;1.456;2024-02-04T17:13:10;101583.47;;;13.05;100.00
73821;BME280;62150;43.582;1.456;2024-02-04T17:15:39;101578.22;;;13.08;100.00
73821;BME280;62150;43.582;1.456;2024-02-04T17:18:09;101579.50;;;12.92;100.00
73821;BME280;62150;43.582;1.456;2024-02-04T17:20:46;101583.22;;;13.14;100.00
73821;BME280;62150;43.582;1.456;2024-02-04T17:23:14;101600.41;;;13.17;100.00
73821;BME280;62150;43.582;1.456;2024-02-04T17:25:46;101585.91;;;13.09;100.00
73821;BME280;62150;43.582;1.456;2024-02-04T17:28:14;101603.28;;;12.69;100.00